Time;durP1;ratioP1;P1;durP2;ratioP2;P2;SDS_P1;SDS_P2;PMS_P1;PMS_P2;Temp;Humidity;BMP_temperature;BMP_pressure;BME280_temperature;BME280_humidity;BME280_pressure;Samples;Min_cycle;Max_cycle;Signal;HPM_P1;HPM_P2
2023/12/19 00:01:51;;;;;;;50.42;26.88;;;;;;;;;;4990746;28;92418;-65
2023/12/19 00:07:12;;;;;;;49.75;26.65;;;;;;;;;;5020289;22;94209;-87
2023/12/19 00:09:39;;;;;;;57.65;28.55;;;;;;;;;;5002644;28;93015;-86
2023/12/19 00:12:07;;;;;;;53.85;27.00;;;;;;;;;;5003745;28;96253;-87
2023/12/19 00:14:33;;;;;;;54.20;27.00;;;;;;;;;;5005044;28;98802;-87
2023/12/19 00:17:01;;;;;;;51.30;26.63;;;;;;;;;;5008505;28;92486;-87
2023/12/19 00:19:27;;;;;;;48.35;25.33;;;;;;;;;;5007358;28;93318;-87
2023/12/19 00:21:53;;;;;;;56.45;26.38;;;;;;;;;;4999714;28;94976;-87
2023/12/19 00:24:20;;;;;;;53.97;25.85;;;;;;;;;;5005493;28;93599;-86
2023/12/19 00:26:47;;;;;;;55.97;26.00;;;;;;;;;;5000648;28;97352;-87
2023/12/19 00:29:13;;;;;;;51.53;27.30;;;;;;;;;;5001592;28;92877;-86
2023/12/19 00:31:39;;;;;;;52.55;26.25;;;;;;;;;;5005384;28;96131;-87
2023/12/19 00:34:06;;;;;;;52.47;26.63;;;;;;;;;;4999666;28;93861;-87
2023/12/19 00:36:33;;;;;;;55.90;28.70;;;;;;;;;;5014137;28;94306;-87
2023/12/19 00:38:59;;;;;;;53.72;27.63;;;;;;;;;;5013241;28;95447;-86
2023/12/19 00:41:26;;;;;;;52.88;26.05;;;;;;;;;;5007165;28;92373;-87
2023/12/19 00:43:52;;;;;;;60.55;29.35;;;;;;;;;;5006290;28;96292;-86
2023/12/19 00:46:18;;;;;;;58.35;27.80;;;;;;;;;;5006338;28;94694;-87
2023/12/19 00:48:45;;;;;;;61.13;29.67;;;;;;;;;;5006358;28;92814;-86
2023/12/19 00:51:12;;;;;;;61.97;28.30;;;;;;;;;;5006068;28;97111;-86
2023/12/19 00:53:39;;;;;;;57.85;28.15;;;;;;;;;;5011026;28;97434;-87
2023/12/19 00:56:07;;;;;;;60.88;29.35;;;;;;;;;;5002519;28;91745;-87
2023/12/19 00:58:34;;;;;;;60.58;30.23;;;;;;;;;;5004826;28;93985;-87
2023/12/19 01:01:00;;;;;;;58.08;29.13;;;;;;;;;;5002634;28;96228;-87
2023/12/19 01:03:27;;;;;;;60.75;29.55;;;;;;;;;;5006395;28;95882;-86
2023/12/19 01:05:54;;;;;;;62.55;29.80;;;;;;;;;;5003342;28;93717;-86
2023/12/19 01:08:21;;;;;;;64.93;29.85;;;;;;;;;;4998384;28;92597;-87
2023/12/19 01:10:47;;;;;;;64.70;30.42;;;;;;;;;;5002399;28;94777;-86
2023/12/19 01:13:14;;;;;;;71.88;29.95;;;;;;;;;;5004071;28;96835;-87
2023/12/19 01:15:40;;;;;;;62.35;29.98;;;;;;;;;;5003313;28;92956;-86
2023/12/19 01:18:07;;;;;;;69.68;29.77;;;;;;;;;;5008476;28;94460;-86
2023/12/19 01:20:35;;;;;;;72.53;30.20;;;;;;;;;;5008602;28;96697;-86
2023/12/19 01:23:01;;;;;;;61.65;30.55;;;;;;;;;;5000588;28;92452;-87
2023/12/19 01:25:28;;;;;;;65.55;29.52;;;;;;;;;;5003331;28;96163;-87
2023/12/19 01:27:54;;;;;;;61.67;29.88;;;;;;;;;;5007024;28;95380;-86
2023/12/19 01:30:20;;;;;;;64.82;31.35;;;;;;;;;;5005467;28;99528;-87
2023/12/19 01:32:48;;;;;;;63.78;29.90;;;;;;;;;;5000973;28;96732;-87
2023/12/19 01:35:15;;;;;;;74.10;29.45;;;;;;;;;;5008409;28;92594;-87
2023/12/19 01:37:42;;;;;;;62.47;30.23;;;;;;;;;;5003532;28;93167;-86
2023/12/19 01:40:09;;;;;;;65.45;29.02;;;;;;;;;;5005219;28;96039;-87
2023/12/19 01:42:36;;;;;;;63.85;30.05;;;;;;;;;;5003374;28;92503;-87
2023/12/19 01:45:09;;;;;;;63.95;29.25;;;;;;;;;;5007594;28;97199;-87
2023/12/19 01:47:41;;;;;;;59.30;29.75;;;;;;;;;;5002942;28;93097;-86
2023/12/19 01:50:07;;;;;;;60.97;28.58;;;;;;;;;;5011044;28;94486;-87
2023/12/19 01:52:36;;;;;;;64.90;30.00;;;;;;;;;;5002643;28;98811;-87
2023/12/19 01:55:03;;;;;;;56.97;28.80;;;;;;;;;;4988452;28;94361;-88
2023/12/19 01:57:29;;;;;;;62.53;28.20;;;;;;;;;;5006239;28;94503;-87
2023/12/19 01:59:56;;;;;;;50.72;27.95;;;;;;;;;;4997284;28;97097;-86
2023/12/19 02:02:22;;;;;;;60.17;28.65;;;;;;;;;;5003667;28;92611;-86
2023/12/19 02:04:49;;;;;;;60.90;29.88;;;;;;;;;;5001222;28;96584;-87
2023/12/19 02:07:15;;;;;;;55.58;27.95;;;;;;;;;;5005572;28;97613;-87
2023/12/19 02:09:42;;;;;;;63.55;28.58;;;;;;;;;;4999040;28;97273;-87
2023/12/19 02:12:08;;;;;;;59.83;28.88;;;;;;;;;;4998483;28;97490;-87
2023/12/19 02:14:35;;;;;;;54.67;28.48;;;;;;;;;;5001936;28;92572;-87
2023/12/19 02:17:01;;;;;;;61.05;28.25;;;;;;;;;;5003706;28;97322;-86
2023/12/19 02:19:28;;;;;;;56.45;27.98;;;;;;;;;;5001115;28;97784;-87
2023/12/19 02:21:54;;;;;;;52.13;26.50;;;;;;;;;;4991533;28;92413;-88
2023/12/19 02:24:23;;;;;;;50.13;25.60;;;;;;;;;;5006803;28;94223;-86
2023/12/19 02:26:50;;;;;;;61.42;26.20;;;;;;;;;;5010320;28;94612;-87
2023/12/19 02:29:16;;;;;;;53.17;27.08;;;;;;;;;;5008583;28;92554;-86
2023/12/19 02:31:43;;;;;;;56.55;26.80;;;;;;;;;;5005236;28;96611;-87
2023/12/19 02:34:10;;;;;;;53.65;26.38;;;;;;;;;;5004215;28;93009;-86
2023/12/19 02:36:37;;;;;;;52.85;27.70;;;;;;;;;;4999288;28;95660;-87
2023/12/19 02:39:04;;;;;;;44.90;25.77;;;;;;;;;;4996245;28;98063;-87
2023/12/19 02:41:30;;;;;;;54.22;28.13;;;;;;;;;;4998953;28;94927;-87
2023/12/19 02:43:56;;;;;;;53.65;27.38;;;;;;;;;;4999456;28;96515;-87
2023/12/19 02:46:23;;;;;;;57.05;27.98;;;;;;;;;;5000565;28;95645;-87
2023/12/19 02:48:50;;;;;;;56.67;28.80;;;;;;;;;;4989278;28;95107;-86
2023/12/19 02:51:18;;;;;;;57.67;29.30;;;;;;;;;;4984107;28;95037;-87
2023/12/19 02:53:44;;;;;;;52.80;27.15;;;;;;;;;;4999225;28;92419;-87
2023/12/19 02:56:11;;;;;;;59.67;28.80;;;;;;;;;;4999329;28;96873;-88
2023/12/19 02:58:37;;;;;;;56.83;29.17;;;;;;;;;;4998349;28;97290;-87
2023/12/19 03:01:07;;;;;;;52.72;27.25;;;;;;;;;;4999330;28;92451;-88
2023/12/19 03:03:33;;;;;;;52.72;27.70;;;;;;;;;;5001577;28;96582;-88
2023/12/19 03:06:01;;;;;;;52.20;26.77;;;;;;;;;;4998112;28;96977;-87
2023/12/19 03:08:27;;;;;;;54.22;26.73;;;;;;;;;;4998690;28;92582;-87
2023/12/19 03:10:54;;;;;;;59.22;27.60;;;;;;;;;;5009077;28;97296;-87
2023/12/19 03:13:20;;;;;;;54.25;28.35;;;;;;;;;;4999513;28;92677;-87
2023/12/19 03:15:47;;;;;;;55.60;28.80;;;;;;;;;;5004826;28;97023;-87
2023/12/19 03:18:13;;;;;;;66.30;29.45;;;;;;;;;;5003648;28;94328;-87
2023/12/19 03:20:40;;;;;;;56.63;28.55;;;;;;;;;;4999387;28;93259;-87
2023/12/19 03:23:06;;;;;;;63.97;30.08;;;;;;;;;;5003382;28;94603;-87
2023/12/19 03:25:33;;;;;;;67.25;30.73;;;;;;;;;;5004724;28;94183;-88
2023/12/19 03:28:00;;;;;;;65.10;29.15;;;;;;;;;;4994274;28;92807;-87
2023/12/19 03:30:26;;;;;;;63.00;29.23;;;;;;;;;;4999322;28;95322;-87
2023/12/19 03:32:53;;;;;;;69.18;31.33;;;;;;;;;;5004428;28;98117;-87
2023/12/19 03:35:19;;;;;;;59.25;27.70;;;;;;;;;;5003627;28;95782;-88
2023/12/19 03:37:46;;;;;;;57.80;28.38;;;;;;;;;;5006584;28;96629;-87
2023/12/19 03:40:12;;;;;;;59.90;27.83;;;;;;;;;;5002425;28;92478;-87
2023/12/19 03:42:39;;;;;;;57.55;28.00;;;;;;;;;;5003555;28;95160;-87
2023/12/19 03:45:06;;;;;;;51.58;27.20;;;;;;;;;;5002459;28;95039;-87
2023/12/19 03:47:32;;;;;;;60.33;27.67;;;;;;;;;;4999302;28;93573;-87
2023/12/19 03:49:59;;;;;;;57.20;28.35;;;;;;;;;;4995980;28;94675;-87
2023/12/19 03:52:25;;;;;;;52.38;27.55;;;;;;;;;;5000490;28;93758;-88
2023/12/19 03:54:52;;;;;;;60.97;29.80;;;;;;;;;;4997340;28;95014;-87
2023/12/19 03:57:18;;;;;;;59.92;28.65;;;;;;;;;;5000973;28;95539;-87
2023/12/19 03:59:45;;;;;;;58.58;29.48;;;;;;;;;;4999983;28;93190;-87
2023/12/19 04:02:12;;;;;;;57.47;27.15;;;;;;;;;;5001990;28;95765;-87
2023/12/19 04:04:38;;;;;;;50.72;28.63;;;;;;;;;;5000342;28;94113;-87
2023/12/19 04:07:05;;;;;;;57.35;26.63;;;;;;;;;;5003509;28;94054;-87
2023/12/19 04:09:33;;;;;;;58.38;26.73;;;;;;;;;;5003062;28;96943;-87
2023/12/19 04:12:03;;;;;;;54.35;26.70;;;;;;;;;;4998325;28;96838;-87
2023/12/19 04:14:30;;;;;;;60.72;27.25;;;;;;;;;;4994937;28;93515;-87
2023/12/19 04:16:57;;;;;;;50.55;26.33;;;;;;;;;;5010327;28;93490;-87
2023/12/19 04:19:24;;;;;;;39.70;24.10;;;;;;;;;;5003160;28;94831;-87
2023/12/19 04:21:51;;;;;;;43.13;23.50;;;;;;;;;;4998881;28;99833;-87
2023/12/19 04:24:18;;;;;;;42.30;22.95;;;;;;;;;;4999302;28;97736;-87
2023/12/19 04:26:46;;;;;;;39.60;21.52;;;;;;;;;;5002423;28;92956;-87
2023/12/19 04:29:13;;;;;;;40.88;21.40;;;;;;;;;;5005853;28;93186;-87
2023/12/19 04:31:40;;;;;;;41.92;23.00;;;;;;;;;;4998670;28;93596;-87
2023/12/19 04:34:07;;;;;;;38.05;20.80;;;;;;;;;;4999399;28;92718;-87
2023/12/19 04:36:34;;;;;;;41.80;22.05;;;;;;;;;;5010312;28;93311;-87
2023/12/19 04:39:00;;;;;;;44.58;23.35;;;;;;;;;;4996962;28;95064;-87
2023/12/19 04:41:26;;;;;;;44.13;24.05;;;;;;;;;;4991736;28;93198;-87
2023/12/19 04:43:53;;;;;;;47.40;24.38;;;;;;;;;;4997406;28;99091;-87
2023/12/19 04:46:20;;;;;;;46.60;24.63;;;;;;;;;;5000884;28;94245;-87
2023/12/19 04:48:46;;;;;;;40.50;23.83;;;;;;;;;;4992926;28;97443;-87
2023/12/19 04:51:18;;;;;;;48.08;25.05;;;;;;;;;;4996905;28;97451;-87
2023/12/19 04:53:45;;;;;;;46.97;24.20;;;;;;;;;;4990280;28;93706;-87
2023/12/19 04:56:12;;;;;;;44.72;23.55;;;;;;;;;;4998589;28;94015;-87
2023/12/19 04:58:42;;;;;;;41.80;22.92;;;;;;;;;;5000204;28;93524;-88
2023/12/19 05:01:08;;;;;;;36.80;21.90;;;;;;;;;;5003129;28;94649;-87
2023/12/19 05:03:37;;;;;;;42.60;22.45;;;;;;;;;;5001465;28;97428;-87
2023/12/19 05:06:05;;;;;;;33.72;20.13;;;;;;;;;;4999214;28;94061;-87
2023/12/19 05:08:32;;;;;;;30.30;19.67;;;;;;;;;;5013966;28;94936;-87
2023/12/19 05:10:58;;;;;;;29.52;18.88;;;;;;;;;;5000295;28;94074;-87
2023/12/19 05:13:26;;;;;;;33.60;18.92;;;;;;;;;;5001042;28;92781;-87
2023/12/19 05:15:52;;;;;;;28.63;17.80;;;;;;;;;;4997409;28;95222;-87
2023/12/19 05:18:19;;;;;;;21.17;14.93;;;;;;;;;;4996655;28;95142;-88
2023/12/19 05:20:45;;;;;;;27.33;16.88;;;;;;;;;;4999445;28;92516;-88
2023/12/19 05:23:12;;;;;;;24.55;15.05;;;;;;;;;;4998074;28;96723;-87
2023/12/19 05:25:38;;;;;;;22.13;15.30;;;;;;;;;;5001214;28;92356;-87
2023/12/19 05:28:05;;;;;;;22.73;14.02;;;;;;;;;;5001856;28;94380;-87
2023/12/19 05:30:32;;;;;;;21.20;13.43;;;;;;;;;;4998868;28;94430;-87
2023/12/19 05:32:58;;;;;;;19.40;13.57;;;;;;;;;;4988462;28;94968;-87
2023/12/19 05:35:25;;;;;;;18.70;13.02;;;;;;;;;;4996201;28;98619;-87
2023/12/19 05:37:51;;;;;;;19.08;12.73;;;;;;;;;;4999487;28;97013;-87
2023/12/19 05:40:18;;;;;;;20.38;13.93;;;;;;;;;;4997099;28;94166;-87
2023/12/19 05:42:44;;;;;;;23.38;14.98;;;;;;;;;;5003678;28;93820;-87
2023/12/19 05:45:11;;;;;;;22.50;14.95;;;;;;;;;;5003253;28;92681;-87
2023/12/19 05:47:37;;;;;;;24.20;15.88;;;;;;;;;;4992143;28;96279;-87
2023/12/19 05:50:04;;;;;;;22.17;15.48;;;;;;;;;;4996671;28;94108;-87
2023/12/19 05:52:31;;;;;;;22.45;15.30;;;;;;;;;;5002183;28;94286;-87
2023/12/19 05:54:59;;;;;;;20.98;15.15;;;;;;;;;;5002565;28;96378;-88
2023/12/19 05:57:26;;;;;;;22.15;15.40;;;;;;;;;;5000302;28;96568;-87
2023/12/19 05:59:53;;;;;;;23.40;15.23;;;;;;;;;;5000578;28;92483;-87
2023/12/19 06:02:21;;;;;;;23.95;15.90;;;;;;;;;;4998368;28;94981;-87
2023/12/19 06:04:49;;;;;;;26.10;16.33;;;;;;;;;;4999725;28;96667;-87
2023/12/19 06:07:16;;;;;;;30.25;17.13;;;;;;;;;;4999902;28;97359;-87
2023/12/19 06:09:42;;;;;;;27.48;16.30;;;;;;;;;;4997794;28;93436;-87
2023/12/19 06:12:11;;;;;;;25.35;16.35;;;;;;;;;;4994959;28;93229;-87
2023/12/19 06:14:37;;;;;;;24.70;16.45;;;;;;;;;;5001630;28;92979;-87
2023/12/19 06:17:04;;;;;;;25.98;16.63;;;;;;;;;;4987334;28;96712;-87
2023/12/19 06:19:30;;;;;;;24.75;16.20;;;;;;;;;;5002795;28;92548;-87
2023/12/19 06:21:57;;;;;;;22.60;15.82;;;;;;;;;;4995378;28;97049;-87
2023/12/19 06:24:24;;;;;;;23.25;16.38;;;;;;;;;;5002471;28;97347;-87
2023/12/19 06:26:51;;;;;;;23.02;16.55;;;;;;;;;;5001974;28;93306;-87
2023/12/19 06:29:17;;;;;;;24.33;15.40;;;;;;;;;;4992142;28;94498;-87
2023/12/19 06:31:44;;;;;;;25.67;14.98;;;;;;;;;;4994248;28;92724;-87
2023/12/19 06:34:11;;;;;;;21.42;15.23;;;;;;;;;;4999731;28;96040;-87
2023/12/19 06:36:38;;;;;;;23.25;14.75;;;;;;;;;;4994811;28;94553;-87
2023/12/19 06:39:06;;;;;;;21.95;15.38;;;;;;;;;;4999663;28;92874;-87
2023/12/19 06:41:32;;;;;;;24.48;16.17;;;;;;;;;;4998272;28;96616;-87
2023/12/19 06:43:59;;;;;;;25.65;16.88;;;;;;;;;;5004030;28;96477;-87
2023/12/19 06:46:25;;;;;;;25.58;17.88;;;;;;;;;;4999875;28;94829;-87
2023/12/19 06:48:52;;;;;;;25.48;17.35;;;;;;;;;;5004556;28;94378;-87
2023/12/19 06:51:21;;;;;;;26.00;15.88;;;;;;;;;;5001399;28;93915;-87
2023/12/19 06:53:48;;;;;;;25.63;17.75;;;;;;;;;;5002669;28;96695;-87
2023/12/19 06:56:14;;;;;;;25.00;16.05;;;;;;;;;;5005955;28;96778;-87
2023/12/19 06:58:40;;;;;;;23.80;16.65;;;;;;;;;;4996524;28;92409;-87
2023/12/19 07:01:07;;;;;;;26.35;17.48;;;;;;;;;;4999566;28;97644;-88
2023/12/19 07:03:33;;;;;;;25.65;17.50;;;;;;;;;;5001177;28;96260;-87
2023/12/19 07:06:00;;;;;;;26.13;18.17;;;;;;;;;;5001398;28;92475;-87
2023/12/19 07:08:27;;;;;;;25.58;18.13;;;;;;;;;;5003252;28;96524;-87
2023/12/19 07:10:56;;;;;;;30.37;19.53;;;;;;;;;;4997803;28;95056;-87
2023/12/19 07:13:23;;;;;;;28.85;19.63;;;;;;;;;;5000531;28;100009;-87
2023/12/19 07:15:49;;;;;;;29.20;20.05;;;;;;;;;;5004109;28;93377;-85
2023/12/19 07:18:16;;;;;;;33.50;19.60;;;;;;;;;;5000372;28;92968;-84
2023/12/19 07:20:43;;;;;;;30.08;20.17;;;;;;;;;;4996678;28;94845;-84
2023/12/19 07:23:09;;;;;;;28.70;19.35;;;;;;;;;;4991207;28;96076;-85
2023/12/19 07:25:35;;;;;;;30.42;19.65;;;;;;;;;;5000196;28;92527;-85
2023/12/19 07:28:02;;;;;;;34.15;21.13;;;;;;;;;;5008890;28;97755;-85
2023/12/19 07:30:29;;;;;;;32.50;20.92;;;;;;;;;;5002102;28;96996;-84
2023/12/19 07:32:55;;;;;;;40.78;22.02;;;;;;;;;;5002299;28;93289;-85
2023/12/19 07:35:42;;;;;;;38.58;23.10;;;;;;;;;;4996277;28;96538;-87
2023/12/19 07:38:11;;;;;;;36.03;22.30;;;;;;;;;;5002150;28;93477;-88
2023/12/19 07:41:14;;;;;;;42.58;22.95;;;;;;;;;;5001212;28;97583;-90
2023/12/19 07:43:44;;;;;;;44.13;24.98;;;;;;;;;;4996936;28;95982;-88
2023/12/19 07:46:13;;;;;;;44.97;24.83;;;;;;;;;;5016581;28;92802;-88
2023/12/19 07:48:39;;;;;;;44.55;24.60;;;;;;;;;;4996044;28;97675;-87
2023/12/19 07:51:43;;;;;;;40.90;24.20;;;;;;;;;;5008475;28;96894;-89
2023/12/19 07:54:09;;;;;;;37.85;22.45;;;;;;;;;;4968701;28;93522;-88
2023/12/19 07:56:40;;;;;;;44.20;23.25;;;;;;;;;;4932375;28;96098;-89
2023/12/19 07:59:27;;;;;;;46.38;25.15;;;;;;;;;;4953903;28;92987;-90
2023/12/19 08:02:00;;;;;;;38.97;23.05;;;;;;;;;;4964913;28;95015;-88
2023/12/19 08:04:27;;;;;;;47.08;23.35;;;;;;;;;;5002248;28;98534;-90
2023/12/19 08:06:54;;;;;;;45.28;23.60;;;;;;;;;;5018980;28;93920;-90
2023/12/19 08:09:21;;;;;;;43.38;24.55;;;;;;;;;;5000651;28;96380;-91
2023/12/19 08:11:48;;;;;;;44.38;23.95;;;;;;;;;;5007244;28;96998;-90
2023/12/19 08:14:14;;;;;;;42.35;23.85;;;;;;;;;;4998690;28;94107;-89
2023/12/19 08:16:44;;;;;;;42.22;24.00;;;;;;;;;;5001267;28;96543;-89
2023/12/19 08:19:13;;;;;;;45.30;24.80;;;;;;;;;;4996596;28;91781;-91
2023/12/19 08:21:50;;;;;;;45.17;25.42;;;;;;;;;;4999194;28;95764;-90
2023/12/19 08:24:31;;;;;;;47.25;24.55;;;;;;;;;;4980724;28;93420;-88
2023/12/19 08:26:57;;;;;;;50.92;26.20;;;;;;;;;;4998513;28;96900;-87
2023/12/19 08:29:24;;;;;;;50.70;25.58;;;;;;;;;;5005112;28;100160;-86
2023/12/19 08:31:50;;;;;;;46.63;24.80;;;;;;;;;;4997047;28;94976;-88
2023/12/19 08:34:18;;;;;;;42.75;24.67;;;;;;;;;;5008186;28;93591;-87
2023/12/19 08:37:17;;;;;;;45.53;23.45;;;;;;;;;;5007351;28;97230;-90
2023/12/19 08:39:45;;;;;;;43.88;22.80;;;;;;;;;;5002071;28;96420;-88
2023/12/19 08:42:13;;;;;;;46.10;23.98;;;;;;;;;;4995155;28;96884;-89
2023/12/19 08:45:02;;;;;;;38.95;21.98;;;;;;;;;;5016020;28;94405;-91
2023/12/19 08:47:35;;;;;;;40.17;22.40;;;;;;;;;;5004414;28;93091;-87
2023/12/19 08:50:08;;;;;;;43.65;22.88;;;;;;;;;;5008300;28;96155;-90
2023/12/19 08:52:37;;;;;;;41.25;23.10;;;;;;;;;;4995265;28;99597;-88
2023/12/19 08:55:08;;;;;;;41.20;23.02;;;;;;;;;;5005375;28;93862;-86
2023/12/19 08:57:35;;;;;;;41.72;22.48;;;;;;;;;;4999782;28;97442;-88
2023/12/19 09:00:03;;;;;;;41.83;21.63;;;;;;;;;;5002882;28;97614;-87
2023/12/19 09:02:29;;;;;;;37.50;21.17;;;;;;;;;;5002574;28;94436;-87
2023/12/19 09:04:56;;;;;;;39.83;21.55;;;;;;;;;;5005739;28;97641;-87
2023/12/19 09:07:23;;;;;;;36.75;22.40;;;;;;;;;;5002100;28;94385;-87
2023/12/19 09:09:52;;;;;;;38.20;21.55;;;;;;;;;;4999829;28;93427;-87
2023/12/19 09:12:18;;;;;;;36.65;21.27;;;;;;;;;;5003257;28;94813;-86
2023/12/19 09:14:45;;;;;;;37.90;19.52;;;;;;;;;;5000871;28;92730;-88
2023/12/19 09:17:14;;;;;;;40.47;22.20;;;;;;;;;;4996342;28;94990;-87
2023/12/19 09:19:41;;;;;;;31.73;20.20;;;;;;;;;;5000587;28;97222;-86
2023/12/19 09:22:07;;;;;;;36.95;22.00;;;;;;;;;;5003289;28;93812;-87
2023/12/19 09:24:34;;;;;;;37.83;21.38;;;;;;;;;;4997865;28;94342;-87
2023/12/19 09:27:01;;;;;;;32.80;20.30;;;;;;;;;;5002267;28;93220;-86
2023/12/19 09:29:28;;;;;;;66.70;44.97;;;;;;;;;;5004773;28;96323;-87
2023/12/19 09:31:56;;;;;;;33.70;22.33;;;;;;;;;;4994745;28;94377;-87
2023/12/19 09:34:22;;;;;;;29.10;18.13;;;;;;;;;;4998056;28;94132;-87
2023/12/19 09:36:51;;;;;;;32.90;18.92;;;;;;;;;;5006149;28;92550;-88
2023/12/19 09:39:23;;;;;;;30.70;18.60;;;;;;;;;;4997293;28;95880;-87
2023/12/19 09:41:50;;;;;;;34.25;19.30;;;;;;;;;;4997672;28;94868;-87
2023/12/19 09:44:17;;;;;;;37.20;18.77;;;;;;;;;;5002387;28;96465;-88
2023/12/19 09:46:52;;;;;;;34.72;20.15;;;;;;;;;;5000433;28;94397;-88
2023/12/19 09:49:21;;;;;;;26.45;18.58;;;;;;;;;;5001410;28;96706;-89
2023/12/19 09:51:58;;;;;;;30.35;19.40;;;;;;;;;;5018455;28;96366;-90
2023/12/19 09:54:28;;;;;;;29.58;18.95;;;;;;;;;;5001574;28;92516;-90
2023/12/19 09:57:06;;;;;;;28.00;17.90;;;;;;;;;;5010425;28;95785;-91
2023/12/19 09:59:59;;;;;;;29.30;18.45;;;;;;;;;;4936169;28;94149;-89
2023/12/19 10:02:57;;;;;;;29.67;18.33;;;;;;;;;;4996788;28;92571;-91
2023/12/19 10:05:35;;;;;;;;;;;;;;;;;;;;;
2023/12/19 10:15:49;;;;;;;23.88;16.30;;;;;;;;;;4842652;28;94506;-90
2023/12/19 10:18:44;;;;;;;27.25;14.77;;;;;;;;;;4909700;28;92468;-89
2023/12/19 10:21:28;;;;;;;24.30;14.63;;;;;;;;;;4917250;28;92476;-89
2023/12/19 10:24:11;;;;;;;24.83;14.82;;;;;;;;;;4912093;28;95722;-89
2023/12/19 10:26:44;;;;;;;22.15;14.32;;;;;;;;;;4934477;28;92803;-89
2023/12/19 10:29:24;;;;;;;20.35;13.93;;;;;;;;;;4937747;28;95802;-90
2023/12/19 10:32:00;;;;;;;19.90;13.90;;;;;;;;;;4919355;28;97688;-89
2023/12/19 10:37:45;;;;;;;19.33;13.20;;;;;;;;;;4868895;28;97173;-90
2023/12/19 10:40:15;;;;;;;21.02;12.63;;;;;;;;;;4914416;28;92648;-90
2023/12/19 10:43:15;;;;;;;19.48;13.02;;;;;;;;;;4918200;28;96372;-90
2023/12/19 10:45:47;;;;;;;20.10;12.57;;;;;;;;;;4918677;28;95407;-86
2023/12/19 10:48:14;;;;;;;21.60;12.18;;;;;;;;;;4924550;28;93987;-86
2023/12/19 10:50:40;;;;;;;23.73;12.93;;;;;;;;;;4995466;28;96884;-88
2023/12/19 10:53:08;;;;;;;18.52;12.25;;;;;;;;;;4998063;28;97081;-87
2023/12/19 10:55:44;;;;;;;22.92;12.88;;;;;;;;;;5003402;28;93412;-87
2023/12/19 10:58:12;;;;;;;23.15;12.30;;;;;;;;;;5008570;28;96902;-87
2023/12/19 11:00:41;;;;;;;17.02;12.18;;;;;;;;;;5003821;28;94432;-87
2023/12/19 11:03:08;;;;;;;21.65;12.18;;;;;;;;;;5002906;28;96479;-87
2023/12/19 11:05:41;;;;;;;21.75;12.38;;;;;;;;;;5005787;28;97383;-87
2023/12/19 11:08:13;;;;;;;22.98;12.77;;;;;;;;;;5003745;28;93959;-87
2023/12/19 11:10:40;;;;;;;16.42;12.00;;;;;;;;;;5002336;28;96985;-88
2023/12/19 11:13:07;;;;;;;25.15;14.43;;;;;;;;;;5002682;28;96710;-87
2023/12/19 11:15:35;;;;;;;20.33;13.10;;;;;;;;;;5006624;28;94226;-87
2023/12/19 11:18:10;;;;;;;19.83;12.32;;;;;;;;;;5007027;28;96753;-87
2023/12/19 11:20:41;;;;;;;18.67;11.88;;;;;;;;;;5006216;28;94245;-87
2023/12/19 11:23:08;;;;;;;19.58;12.38;;;;;;;;;;5004587;28;93639;-87
2023/12/19 11:25:37;;;;;;;21.45;11.50;;;;;;;;;;5006834;28;96685;-87
2023/12/19 11:28:04;;;;;;;22.67;12.57;;;;;;;;;;4997365;28;94940;-86
2023/12/19 11:30:36;;;;;;;21.17;12.48;;;;;;;;;;4998812;28;98170;-88
2023/12/19 11:33:04;;;;;;;15.40;11.27;;;;;;;;;;5004486;28;97804;-89
2023/12/19 11:35:31;;;;;;;16.88;10.13;;;;;;;;;;4994581;28;92516;-87
2023/12/19 11:38:13;;;;;;;15.68;10.68;;;;;;;;;;4999196;28;96035;-87
2023/12/19 11:40:58;;;;;;;15.20;10.35;;;;;;;;;;5003390;28;97421;-87
2023/12/19 11:43:28;;;;;;;20.63;10.55;;;;;;;;;;4996141;28;94556;-87
2023/12/19 11:45:54;;;;;;;16.63;9.93;;;;;;;;;;5002538;28;94380;-87
2023/12/19 11:52:29;;;;;;;14.15;9.30;;;;;;;;;;4949416;28;92688;-90
2023/12/19 11:58:09;;;;;;;11.73;8.40;;;;;;;;;;4968226;28;93623;-70
2023/12/19 12:00:36;;;;;;;14.90;9.63;;;;;;;;;;4968105;28;93669;-68
2023/12/19 12:03:08;;;;;;;13.27;9.20;;;;;;;;;;4965279;28;93466;-68
2023/12/19 12:05:35;;;;;;;12.50;8.43;;;;;;;;;;4970704;28;92963;-68
2023/12/19 12:08:01;;;;;;;16.02;9.73;;;;;;;;;;4971336;28;93280;-68
2023/12/19 12:10:27;;;;;;;13.60;9.27;;;;;;;;;;4970311;28;92706;-69
2023/12/19 12:12:55;;;;;;;11.15;9.13;;;;;;;;;;4966657;28;92219;-69
2023/12/19 12:15:23;;;;;;;11.85;8.77;;;;;;;;;;4969776;28;94056;-68
2023/12/19 12:17:50;;;;;;;14.25;9.15;;;;;;;;;;4969374;28;92441;-68
2023/12/19 12:20:24;;;;;;;11.98;9.48;;;;;;;;;;4968071;28;95458;-69
2023/12/19 12:22:51;;;;;;;12.95;9.40;;;;;;;;;;4968824;28;93432;-68
2023/12/19 12:25:19;;;;;;;18.30;7.85;;;;;;;;;;4964111;28;92671;-69
2023/12/19 12:27:46;;;;;;;12.43;7.90;;;;;;;;;;4973893;28;92681;-69
2023/12/19 12:30:13;;;;;;;9.30;7.35;;;;;;;;;;4969985;28;92912;-69
2023/12/19 12:32:40;;;;;;;10.82;7.65;;;;;;;;;;4969060;28;93177;-69
2023/12/19 12:35:28;;;;;;;14.40;7.47;;;;;;;;;;4969228;28;93873;-69
2023/12/19 12:37:58;;;;;;;9.77;7.60;;;;;;;;;;4973039;28;91813;-69
2023/12/19 12:40:26;;;;;;;8.25;5.93;;;;;;;;;;4973617;28;93912;-69
2023/12/19 12:42:52;;;;;;;6.85;5.78;;;;;;;;;;4962860;28;93486;-69
2023/12/19 12:45:19;;;;;;;8.60;5.68;;;;;;;;;;4967700;28;94730;-69
2023/12/19 12:47:47;;;;;;;6.22;5.55;;;;;;;;;;4970589;28;94324;-68
2023/12/19 12:50:18;;;;;;;5.93;5.32;;;;;;;;;;4971499;28;93651;-68
2023/12/19 12:52:45;;;;;;;7.80;5.63;;;;;;;;;;4968724;28;92735;-69
2023/12/19 12:55:12;;;;;;;6.15;5.05;;;;;;;;;;4971698;28;93739;-69
2023/12/19 12:57:39;;;;;;;5.85;5.07;;;;;;;;;;4971873;28;92822;-69
2023/12/19 13:00:06;;;;;;;6.63;5.20;;;;;;;;;;4969995;28;93144;-68
2023/12/19 13:02:41;;;;;;;6.28;5.22;;;;;;;;;;4967297;28;92718;-70
2023/12/19 13:05:07;;;;;;;6.38;4.93;;;;;;;;;;4968633;28;92472;-67
2023/12/19 13:07:41;;;;;;;9.15;4.88;;;;;;;;;;4972563;28;92739;-68
2023/12/19 13:10:08;;;;;;;25.05;12.02;;;;;;;;;;4962633;28;94898;-68
2023/12/19 13:12:36;;;;;;;6.88;4.90;;;;;;;;;;4971919;28;92366;-68
2023/12/19 13:15:05;;;;;;;9.23;4.97;;;;;;;;;;4969093;28;93941;-67
2023/12/19 13:17:32;;;;;;;5.13;4.63;;;;;;;;;;4969051;28;92516;-67
2023/12/19 13:19:58;;;;;;;6.85;5.97;;;;;;;;;;4966642;28;93194;-68
2023/12/19 13:22:26;;;;;;;7.50;5.45;;;;;;;;;;4968592;28;93481;-68
2023/12/19 13:24:52;;;;;;;6.50;5.70;;;;;;;;;;4971136;28;92458;-67
2023/12/19 13:27:18;;;;;;;6.50;5.45;;;;;;;;;;4966693;28;93190;-69
2023/12/19 13:29:45;;;;;;;6.78;5.55;;;;;;;;;;4967606;28;93841;-68
2023/12/19 13:32:11;;;;;;;6.78;5.28;;;;;;;;;;4974141;28;92579;-67
2023/12/19 13:34:37;;;;;;;8.73;5.28;;;;;;;;;;4965503;28;96175;-67
2023/12/19 13:37:04;;;;;;;7.57;5.95;;;;;;;;;;4968418;28;92675;-67
2023/12/19 13:39:31;;;;;;;6.53;5.55;;;;;;;;;;4970038;28;93784;-66
2023/12/19 13:42:00;;;;;;;7.22;6.32;;;;;;;;;;4968641;28;93433;-67
2023/12/19 13:44:26;;;;;;;6.25;5.65;;;;;;;;;;4970737;28;92523;-68
2023/12/19 13:46:53;;;;;;;8.38;6.30;;;;;;;;;;4972980;28;94325;-69
2023/12/19 13:49:19;;;;;;;7.20;6.47;;;;;;;;;;4968728;28;93437;-68
2023/12/19 13:51:46;;;;;;;8.30;6.15;;;;;;;;;;4970668;28;91751;-68
2023/12/19 13:54:12;;;;;;;6.72;6.13;;;;;;;;;;4969991;28;93533;-69
2023/12/19 13:56:38;;;;;;;7.57;6.78;;;;;;;;;;4969805;28;92513;-70
2023/12/19 13:59:06;;;;;;;7.72;6.15;;;;;;;;;;4964682;28;95110;-68
2023/12/19 14:01:33;;;;;;;7.13;6.43;;;;;;;;;;4975655;28;93763;-68
2023/12/19 14:04:01;;;;;;;7.15;5.95;;;;;;;;;;4972316;28;92502;-68
2023/12/19 14:06:28;;;;;;;6.43;5.82;;;;;;;;;;4967518;28;93258;-67
2023/12/19 14:08:54;;;;;;;8.27;6.35;;;;;;;;;;4969180;28;94956;-68
2023/12/19 14:11:20;;;;;;;8.40;5.93;;;;;;;;;;4968187;28;92398;-68
2023/12/19 14:13:47;;;;;;;9.65;6.32;;;;;;;;;;4967413;28;93084;-68
2023/12/19 14:16:14;;;;;;;7.18;6.47;;;;;;;;;;4965663;28;92999;-68
2023/12/19 14:18:41;;;;;;;6.82;6.13;;;;;;;;;;4972186;28;92719;-68
2023/12/19 14:21:12;;;;;;;7.07;6.38;;;;;;;;;;4971279;28;93705;-69
2023/12/19 14:23:38;;;;;;;8.60;6.65;;;;;;;;;;4965507;28;94948;-69
2023/12/19 14:26:04;;;;;;;7.20;6.50;;;;;;;;;;4965169;28;96590;-69
2023/12/19 14:28:32;;;;;;;7.07;5.50;;;;;;;;;;4964703;28;93445;-69
2023/12/19 14:30:58;;;;;;;8.77;5.75;;;;;;;;;;4970149;28;94169;-68
2023/12/19 14:33:27;;;;;;;9.15;5.07;;;;;;;;;;4969212;28;92917;-69
2023/12/19 14:35:53;;;;;;;8.52;6.47;;;;;;;;;;4969733;28;93731;-67
2023/12/19 14:38:21;;;;;;;7.13;5.53;;;;;;;;;;4971487;28;92375;-68
2023/12/19 14:40:48;;;;;;;5.40;4.90;;;;;;;;;;4970091;28;92666;-69
2023/12/19 14:43:15;;;;;;;5.25;4.40;;;;;;;;;;4964137;28;92911;-68
2023/12/19 14:45:41;;;;;;;5.30;4.85;;;;;;;;;;4964791;28;94770;-68
2023/12/19 14:48:08;;;;;;;6.68;5.15;;;;;;;;;;4965706;28;96952;-68
2023/12/19 14:50:34;;;;;;;8.10;6.30;;;;;;;;;;4971563;28;92706;-67
2023/12/19 14:53:01;;;;;;;7.55;6.13;;;;;;;;;;4961802;28;92890;-67